Time;durP1;ratioP1;P1;durP2;ratioP2;P2;SDS_P1;SDS_P2;PMS_P1;PMS_P2;Temp;Humidity;BMP_temperature;BMP_pressure;BME280_temperature;BME280_humidity;BME280_pressure;Samples;Min_cycle;Max_cycle;Signal;HPM_P1;HPM_P2
2022/12/15 00:41:03;;;;;;;;;;;;;;;-6.99;100.00;100508.66;5217725;28;20011;-72
2022/12/15 00:43:35;;;;;;;;;;;;;;;-7.00;100.00;100515.59;5214610;28;19921;-72
2022/12/15 00:48:56;;;;;;;;;;;;;;;-6.99;100.00;100532.00;5219395;28;19921;-72
2022/12/15 01:22:37;;;;;;;;;;;;;;;-6.91;100.00;100533.63;5223203;28;20329;-72
2022/12/15 01:25:08;;;;;;;;;;;;;;;-6.88;100.00;100550.03;5224725;28;19916;-72
2022/12/15 01:27:40;;;;;;;;;;;;;;;-6.89;100.00;100544.00;5224039;28;19952;-72
2022/12/15 01:30:12;;;;;;;;;;;;;;;-6.88;100.00;100540.53;5221555;28;19917;-72
2022/12/15 01:32:43;;;;;;;;;;;;;;;-6.84;100.00;100539.63;5221402;28;19917;-72
2022/12/15 01:35:16;;;;;;;;;;;;;;;-6.83;100.00;100535.28;5221009;28;20382;-72
2022/12/15 01:37:47;;;;;;;;;;;;;;;-6.82;100.00;100524.06;5220718;28;20379;-72
2022/12/15 01:43:14;;;;;;;;;;;;;;;-6.82;100.00;100529.25;5215339;28;20423;-72
2022/12/15 01:45:45;;;;;;;;;;;;;;;-6.83;100.00;100536.13;5222586;28;19923;-72
2022/12/15 01:48:29;;;;;;;;;;;;;;;-6.83;100.00;100541.31;5221954;28;19920;-72
2022/12/15 01:51:12;;;;;;;;;;;;;;;-6.83;100.00;100556.03;5215604;28;19917;-72
2022/12/15 01:53:47;;;;;;;;;;;;;;;-6.86;100.00;100562.13;5215766;28;19921;-72
2022/12/15 01:56:20;;;;;;;;;;;;;;;-6.85;100.00;100550.00;5215934;28;20382;-72
2022/12/15 01:58:53;;;;;;;;;;;;;;;-6.85;100.00;100557.78;5221320;28;20011;-71
2022/12/15 02:01:24;;;;;;;;;;;;;;;-6.84;100.00;100559.53;5216855;28;19959;-72
2022/12/15 02:03:55;;;;;;;;;;;;;;;-6.85;100.00;100562.97;5212234;28;20499;-72
2022/12/15 02:06:27;;;;;;;;;;;;;;;-6.86;100.00;100575.09;5218876;28;19923;-72
2022/12/15 02:08:59;;;;;;;;;;;;;;;-6.85;100.00;100571.59;5217596;28;19976;-72
2022/12/15 02:11:45;;;;;;;;;;;;;;;-6.85;100.00;100581.97;5216720;28;19924;-72
2022/12/15 02:14:21;;;;;;;;;;;;;;;-6.87;100.00;100586.31;5215085;28;19921;-71
2022/12/15 02:17:11;;;;;;;;;;;;;;;-6.90;100.00;100592.41;5219718;28;19920;-72
2022/12/15 02:20:00;;;;;;;;;;;;;;;-6.91;100.00;100592.41;5223704;28;19983;-72
2022/12/15 02:22:37;;;;;;;;;;;;;;;-6.95;100.00;100582.94;5224032;28;19927;-72
2022/12/15 02:25:14;;;;;;;;;;;;;;;-6.94;100.00;100587.25;5221472;28;19913;-72
2022/12/15 02:27:58;;;;;;;;;;;;;;;-6.92;100.00;100585.53;5219974;28;19936;-72
2022/12/15 02:30:37;;;;;;;;;;;;;;;-6.94;100.00;100580.34;5220509;28;19921;-72
2022/12/15 02:33:19;;;;;;;;;;;;;;;-6.95;100.00;100586.41;5221361;28;19936;-71
2022/12/15 02:35:59;;;;;;;;;;;;;;;-6.96;100.00;100594.19;5217121;28;19927;-71
2022/12/15 02:38:35;;;;;;;;;;;;;;;-6.97;100.00;100595.06;5222752;28;20392;-72
2022/12/15 02:41:26;;;;;;;;;;;;;;;-6.98;100.00;100583.84;5220134;28;19921;-71
2022/12/15 02:43:57;;;;;;;;;;;;;;;-6.98;100.00;100595.94;5217997;28;20011;-73
2022/12/15 02:46:42;;;;;;;;;;;;;;;-6.98;100.00;100591.63;5215849;28;20504;-72
2022/12/15 02:49:14;;;;;;;;;;;;;;;-6.98;100.00;100590.75;5219573;28;19925;-71
2022/12/15 02:51:51;;;;;;;;;;;;;;;-6.98;100.00;100596.81;5216751;28;20395;-72
2022/12/15 02:54:35;;;;;;;;;;;;;;;-6.97;100.00;100603.69;5222818;28;20329;-71
2022/12/15 02:57:17;;;;;;;;;;;;;;;-6.97;100.00;100601.09;5218857;28;20405;-71
2022/12/15 02:59:59;;;;;;;;;;;;;;;-6.97;100.00;100601.09;5221795;28;19998;-71
2022/12/15 03:02:31;;;;;;;;;;;;;;;-6.99;100.00;100595.06;5209320;28;19913;-72
2022/12/15 03:05:03;;;;;;;;;;;;;;;-6.99;100.00;100594.22;5216126;28;19923;-71
2022/12/15 03:07:34;;;;;;;;;;;;;;;-7.02;100.00;100589.91;5219773;28;19921;-71
2022/12/15 03:10:06;;;;;;;;;;;;;;;-7.02;100.00;100586.47;5212944;28;19921;-71
2022/12/15 03:12:37;;;;;;;;;;;;;;;-7.04;100.00;100604.63;5223285;28;19920;-71
2022/12/15 03:15:09;;;;;;;;;;;;;;;-7.02;100.00;100604.63;5219955;28;20010;-71
2022/12/15 03:17:40;;;;;;;;;;;;;;;-7.04;100.00;100607.22;5221981;28;19925;-71
2022/12/15 03:20:11;;;;;;;;;;;;;;;-7.04;100.00;100609.81;5218750;28;19924;-72
2022/12/15 03:22:43;;;;;;;;;;;;;;;-7.03;100.00;100616.72;5222680;28;20007;-71
2022/12/15 03:25:14;;;;;;;;;;;;;;;-7.03;100.00;100608.94;5220514;28;19921;-71
2022/12/15 03:27:46;;;;;;;;;;;;;;;-7.02;100.00;100618.44;5222073;28;20366;-72
2022/12/15 03:30:17;;;;;;;;;;;;;;;-7.01;100.00;100612.38;5209678;28;19912;-71
2022/12/15 03:32:48;;;;;;;;;;;;;;;-7.01;100.00;100617.56;5223450;28;20363;-71
2022/12/15 03:35:19;;;;;;;;;;;;;;;-7.00;100.00;100621.91;5222174;28;20024;-71
2022/12/15 03:37:51;;;;;;;;;;;;;;;-6.98;100.00;100612.38;5221741;28;19921;-71
2022/12/15 03:40:22;;;;;;;;;;;;;;;-6.98;100.00;100612.38;5222182;28;20012;-71
2022/12/15 03:42:53;;;;;;;;;;;;;;;-6.97;100.00;100621.00;5222349;28;20401;-71
2022/12/15 03:45:25;;;;;;;;;;;;;;;-6.96;100.00;100627.88;5213692;28;21724;-71
2022/12/15 03:47:57;;;;;;;;;;;;;;;-6.96;100.00;100613.22;5224334;28;19916;-71
2022/12/15 03:50:28;;;;;;;;;;;;;;;-6.93;100.00;100620.09;5220142;28;19975;-71
2022/12/15 03:53:01;;;;;;;;;;;;;;;-6.91;100.00;100626.97;5224001;28;19917;-71
2022/12/15 03:55:34;;;;;;;;;;;;;;;-6.91;100.00;100628.72;5223039;28;20848;-71
2022/12/15 03:58:05;;;;;;;;;;;;;;;-6.92;100.00;100634.81;5221265;28;19936;-71
2022/12/15 04:00:36;;;;;;;;;;;;;;;-6.97;100.00;100629.63;5219738;28;19927;-71
2022/12/15 04:03:08;;;;;;;;;;;;;;;-6.99;100.00;100628.78;5228066;28;19917;-71
2022/12/15 04:05:39;;;;;;;;;;;;;;;-7.01;100.00;100627.94;5221464;28;20371;-71
2022/12/15 04:08:11;;;;;;;;;;;;;;;-7.02;100.00;100622.75;5223819;28;19924;-71
2022/12/15 04:10:42;;;;;;;;;;;;;;;-7.04;100.00;100620.19;5221477;28;20653;-71
2022/12/15 04:13:14;;;;;;;;;;;;;;;-7.05;100.00;100621.06;5218637;28;20360;-71
2022/12/15 04:15:45;;;;;;;;;;;;;;;-7.09;100.00;100614.19;5222207;28;19939;-71
2022/12/15 04:18:16;;;;;;;;;;;;;;;-7.09;100.00;100616.78;5225689;28;20269;-70
2022/12/15 04:20:47;;;;;;;;;;;;;;;-7.08;100.00;100605.53;5222329;28;19921;-71
2022/12/15 04:23:19;;;;;;;;;;;;;;;-7.02;100.00;100609.78;5227136;28;19996;-72
2022/12/15 05:33:55;;;;;;;;;;;;;;;-7.03;100.00;100655.63;5222556;28;20008;-71
2022/12/15 05:36:26;;;;;;;;;;;;;;;-7.06;100.00;100649.59;5222963;28;19917;-71
2022/12/15 05:38:57;;;;;;;;;;;;;;;-7.07;100.00;100658.25;5216554;28;19924;-70
2022/12/15 05:41:28;;;;;;;;;;;;;;;-7.08;100.00;100659.13;5226438;28;19923;-71
2022/12/15 05:44:00;;;;;;;;;;;;;;;-7.09;100.00;100668.63;5222166;28;20263;-71
2022/12/15 05:46:31;;;;;;;;;;;;;;;-7.10;100.00;100666.91;5219690;28;19921;-71
2022/12/15 05:49:04;;;;;;;;;;;;;;;-7.08;100.00;100669.47;5217591;28;20417;-70
2022/12/15 05:51:36;;;;;;;;;;;;;;;-7.08;100.00;100666.91;5219741;28;20615;-71
2022/12/15 05:54:09;;;;;;;;;;;;;;;-7.06;100.00;100671.19;5223300;28;19917;-70
2022/12/15 05:56:40;;;;;;;;;;;;;;;-7.04;100.00;100668.59;5221770;28;19925;-71
2022/12/15 05:59:11;;;;;;;;;;;;;;;-7.02;100.00;100672.88;5212780;28;19932;-70
2022/12/15 06:01:42;;;;;;;;;;;;;;;-7.02;100.00;100680.66;5222803;28;20551;-71
2022/12/15 06:04:15;;;;;;;;;;;;;;;-7.02;100.00;100678.06;5225932;28;19941;-71
2022/12/15 06:06:46;;;;;;;;;;;;;;;-7.03;100.00;100688.47;5223194;28;20283;-71
2022/12/15 06:09:17;;;;;;;;;;;;;;;-7.03;100.00;100686.72;5222493;28;19921;-71
2022/12/15 06:11:48;;;;;;;;;;;;;;;-7.04;100.00;100684.16;5224561;28;20078;-72
2022/12/15 06:14:19;;;;;;;;;;;;;;;-7.02;100.00;100677.22;5222740;28;19974;-71
2022/12/15 06:16:51;;;;;;;;;;;;;;;-7.04;100.00;100673.78;5214366;28;20275;-71
2022/12/15 06:19:22;;;;;;;;;;;;;;;-7.04;100.00;100678.97;5217984;28;19925;-71
2022/12/15 06:21:53;;;;;;;;;;;;;;;-7.04;100.00;100672.03;5211464;28;19929;-71
2022/12/15 06:24:25;;;;;;;;;;;;;;;-7.04;100.00;100679.81;5219333;28;19916;-71
2022/12/15 06:26:56;;;;;;;;;;;;;;;-7.04;100.00;100684.16;5219723;28;19921;-72
2022/12/15 06:29:27;;;;;;;;;;;;;;;-7.06;100.00;100681.56;5219579;28;20477;-71
2022/12/15 06:31:58;;;;;;;;;;;;;;;-7.06;100.00;100681.56;5221739;28;19917;-71
2022/12/15 06:34:29;;;;;;;;;;;;;;;-7.06;100.00;100678.97;5218305;28;19941;-72
2022/12/15 06:37:00;;;;;;;;;;;;;;;-7.08;100.00;100685.03;5224567;28;19917;-71
2022/12/15 06:39:32;;;;;;;;;;;;;;;-7.13;100.00;100696.31;5223714;28;19925;-71
2022/12/15 06:42:03;;;;;;;;;;;;;;;-7.15;100.00;100691.97;5222710;28;20983;-71
2022/12/15 06:44:34;;;;;;;;;;;;;;;-7.14;100.00;100701.50;5224095;28;19921;-71
2022/12/15 06:47:06;;;;;;;;;;;;;;;-7.13;100.00;100695.47;5218761;28;19921;-71
2022/12/15 06:49:37;;;;;;;;;;;;;;;-7.12;100.00;100704.94;5218430;28;19917;-71
2022/12/15 06:52:08;;;;;;;;;;;;;;;-7.09;100.00;100702.34;5215190;28;19917;-71
2022/12/15 06:54:39;;;;;;;;;;;;;;;-7.08;100.00;100692.81;5221119;28;19913;-71
2022/12/15 06:57:10;;;;;;;;;;;;;;;-7.05;100.00;100696.25;5218223;28;20423;-71
2022/12/15 06:59:42;;;;;;;;;;;;;;;-7.05;100.00;100696.25;5215928;28;19925;-71
2022/12/15 07:02:16;;;;;;;;;;;;;;;-7.05;100.00;100698.84;5217804;28;20691;-71
2022/12/15 07:04:47;;;;;;;;;;;;;;;-7.03;100.00;100696.25;5216750;28;20016;-71
2022/12/15 07:07:19;;;;;;;;;;;;;;;-7.04;100.00;100700.56;5224903;28;19917;-71
2022/12/15 07:09:50;;;;;;;;;;;;;;;-7.04;100.00;100697.97;5211156;28;19918;-71
2022/12/15 07:12:21;;;;;;;;;;;;;;;-7.01;100.00;100702.28;5215194;28;19924;-72
2022/12/15 07:14:53;;;;;;;;;;;;;;;-7.01;100.00;100703.13;5215225;28;20263;-71
2022/12/15 07:17:24;;;;;;;;;;;;;;;-6.99;100.00;100710.91;5215634;28;20326;-71
2022/12/15 07:19:55;;;;;;;;;;;;;;;-6.98;100.00;100710.91;5219942;28;20032;-71
2022/12/15 07:22:27;;;;;;;;;;;;;;;-6.94;100.00;100717.78;5218915;28;19917;-71
2022/12/15 07:24:58;;;;;;;;;;;;;;;-6.93;100.00;100714.31;5223819;28;19952;-71
2022/12/15 07:27:29;;;;;;;;;;;;;;;-6.91;100.00;100707.38;5229148;28;20314;-71
2022/12/15 07:30:00;;;;;;;;;;;;;;;-6.90;100.00;100711.72;5227545;28;19916;-71
2022/12/15 07:32:32;;;;;;;;;;;;;;;-6.88;100.00;100711.72;5220736;28;19917;-71
2022/12/15 07:35:04;;;;;;;;;;;;;;;-6.85;100.00;100711.66;5225739;28;20380;-71
2022/12/15 07:37:35;;;;;;;;;;;;;;;-6.82;100.00;100718.59;5221843;28;19920;-71
2022/12/15 07:40:07;;;;;;;;;;;;;;;-6.83;100.00;100714.25;5226626;28;19947;-71
2022/12/15 07:42:38;;;;;;;;;;;;;;;-6.82;100.00;100716.00;5226880;28;20007;-71
2022/12/15 07:45:10;;;;;;;;;;;;;;;-6.79;100.00;100731.50;5217160;28;20875;-71
2022/12/15 07:47:41;;;;;;;;;;;;;;;-6.82;100.00;100727.22;5206394;28;19921;-72
2022/12/15 07:50:12;;;;;;;;;;;;;;;-6.83;100.00;100722.03;5222735;28;20268;-72
2022/12/15 07:52:44;;;;;;;;;;;;;;;-6.84;100.00;100723.78;5228030;28;20272;-71
2022/12/15 07:55:15;;;;;;;;;;;;;;;-6.86;100.00;100722.94;5226066;28;19917;-71
2022/12/15 07:57:46;;;;;;;;;;;;;;;-6.84;100.00;100717.75;5225544;28;19933;-71
2022/12/15 08:00:18;;;;;;;;;;;;;;;-6.83;100.00;100727.22;5223483;28;19921;-71
2022/12/15 08:02:49;;;;;;;;;;;;;;;-6.83;100.00;100735.84;5225084;28;19920;-71
2022/12/15 08:05:20;;;;;;;;;;;;;;;-6.82;100.00;100735.00;5210542;28;20302;-71
2022/12/15 08:07:52;;;;;;;;;;;;;;;-6.80;100.00;100745.38;5219372;28;19924;-71
2022/12/15 08:10:23;;;;;;;;;;;;;;;-6.78;100.00;100741.88;5206282;28;21087;-71
2022/12/15 08:12:54;;;;;;;;;;;;;;;-6.77;100.00;100748.81;5215178;28;19943;-71
2022/12/15 08:15:25;;;;;;;;;;;;;;;-6.77;100.00;100738.44;5218011;28;19964;-70
2022/12/15 08:17:56;;;;;;;;;;;;;;;-6.77;100.00;100746.22;5211808;28;19917;-71
2022/12/15 08:20:29;;;;;;;;;;;;;;;-6.75;100.00;100741.88;5213258;28;19972;-71
2022/12/15 08:23:00;;;;;;;;;;;;;;;-6.74;100.00;100740.97;5212909;28;19920;-71
2022/12/15 08:25:31;;;;;;;;;;;;;;;-6.75;100.00;100749.66;5212758;28;20914;-71
2022/12/15 08:28:03;;;;;;;;;;;;;;;-6.75;100.00;100754.84;5214293;28;19964;-72
2022/12/15 08:30:35;;;;;;;;;;;;;;;-6.73;100.00;100750.50;5212062;28;20509;-71
2022/12/15 08:33:06;;;;;;;;;;;;;;;-6.70;100.00;100750.47;5210854;28;19921;-71
2022/12/15 08:35:38;;;;;;;;;;;;;;;-6.67;100.00;100746.13;5218669;28;19921;-71
2022/12/15 08:38:10;;;;;;;;;;;;;;;-6.62;100.00;100749.56;5223262;28;20354;-70
2022/12/15 08:40:41;;;;;;;;;;;;;;;-6.60;100.00;100740.88;5218161;28;19956;-71
2022/12/15 08:43:12;;;;;;;;;;;;;;;-6.57;100.00;100746.06;5214797;28;20166;-71
2022/12/15 08:45:43;;;;;;;;;;;;;;;-6.53;100.00;100749.50;5227786;28;19928;-71
2022/12/15 08:48:14;;;;;;;;;;;;;;;-6.49;100.00;100750.31;5221878;28;19916;-71
2022/12/15 08:50:46;;;;;;;;;;;;;;;-6.43;100.00;100750.28;5221200;28;19921;-71
2022/12/15 08:53:17;;;;;;;;;;;;;;;-6.42;100.00;100760.66;5228186;28;19917;-69
2022/12/15 08:55:48;;;;;;;;;;;;;;;-6.42;100.00;100754.56;5224042;28;20080;-71
2022/12/15 08:58:19;;;;;;;;;;;;;;;-6.38;100.00;100758.91;5229450;28;19959;-71
2022/12/15 09:00:50;;;;;;;;;;;;;;;-6.34;100.00;100765.78;5228537;28;19924;-71
2022/12/15 09:03:22;;;;;;;;;;;;;;;-6.30;100.00;100762.28;5227378;28;21179;-71
2022/12/15 09:05:53;;;;;;;;;;;;;;;-6.27;100.00;100772.66;5227799;28;19921;-71
2022/12/15 09:08:25;;;;;;;;;;;;;;;-6.23;100.00;100782.13;5226771;28;19917;-71
2022/12/15 09:10:57;;;;;;;;;;;;;;;-6.18;100.00;100774.28;5226190;28;20296;-71
2022/12/15 09:13:28;;;;;;;;;;;;;;;-6.16;100.00;100796.75;5232271;28;20293;-71
2022/12/15 09:16:00;;;;;;;;;;;;;;;-6.13;100.00;100794.16;5233201;28;19921;-71
2022/12/15 09:18:32;;;;;;;;;;;;;;;-6.06;100.00;100791.50;5230641;28;19967;-71
2022/12/15 09:21:05;;;;;;;;;;;;;;;-6.01;100.00;100789.72;5230519;28;20473;-71
2022/12/15 09:23:36;;;;;;;;;;;;;;;-5.99;100.00;100790.56;5229513;28;20390;-71
2022/12/15 09:26:13;;;;;;;;;;;;;;;-5.97;100.00;100802.66;5230324;28;20044;-71
2022/12/15 09:28:44;;;;;;;;;;;;;;;-5.93;100.00;100808.66;5230794;28;19928;-71
2022/12/15 09:31:19;;;;;;;;;;;;;;;-5.91;100.00;100812.97;5228542;28;19921;-71
2022/12/15 09:33:52;;;;;;;;;;;;;;;-5.88;100.00;100812.06;5230936;28;19967;-71
2022/12/15 09:36:23;;;;;;;;;;;;;;;-5.86;100.00;100812.91;5227064;28;19913;-71
2022/12/15 09:38:55;;;;;;;;;;;;;;;-5.81;100.00;100815.47;5229895;28;19924;-71
2022/12/15 09:41:28;;;;;;;;;;;;;;;-5.77;100.00;100811.94;5228349;28;19952;-71
2022/12/15 09:44:25;;;;;;;;;;;;;;;-5.74;100.00;100817.97;5228970;28;20402;-71
2022/12/15 09:47:23;;;;;;;;;;;;;;;-5.69;100.00;100817.06;5228085;28;20797;-71
2022/12/15 09:49:55;;;;;;;;;;;;;;;-5.66;100.00;100830.03;5226543;28;19964;-71
2022/12/15 09:52:30;;;;;;;;;;;;;;;-5.63;100.00;100828.28;5227112;28;19923;-71
2022/12/15 09:55:02;;;;;;;;;;;;;;;-5.57;100.00;100837.75;5227461;28;20330;-71
2022/12/15 09:57:38;;;;;;;;;;;;;;;-5.53;100.00;100829.91;5228264;28;19924;-71
2022/12/15 10:00:19;;;;;;;;;;;;;;;-5.51;100.00;100828.13;5222108;28;20185;-71
2022/12/15 10:02:59;;;;;;;;;;;;;;;-5.45;100.00;100824.63;5229277;28;19966;-71
2022/12/15 10:05:31;;;;;;;;;;;;;;;-5.42;100.00;100821.13;5229867;28;19928;-71
2022/12/15 10:08:02;;;;;;;;;;;;;;;-5.39;100.00;100821.97;5229376;28;19920;-71
2022/12/15 10:10:45;;;;;;;;;;;;;;;-5.34;100.00;100825.34;5231811;28;20291;-71
2022/12/15 10:13:19;;;;;;;;;;;;;;;-5.29;100.00;100827.03;5231582;28;19952;-72
2022/12/15 10:15:54;;;;;;;;;;;;;;;-5.25;100.00;100823.56;5228613;28;19975;-71
2022/12/15 10:18:37;;;;;;;;;;;;;;;-5.22;100.00;100823.50;5227396;28;19926;-72
2022/12/15 10:21:12;;;;;;;;;;;;;;;-5.16;100.00;100813.91;5223744;28;19928;-72
2022/12/15 10:23:44;;;;;;;;;;;;;;;-5.12;100.00;100819.91;5227939;28;19928;-71
2022/12/15 10:26:18;;;;;;;;;;;;;;;-5.06;100.00;100816.34;5226746;28;19916;-71
2022/12/15 10:28:54;;;;;;;;;;;;;;;-5.03;100.00;100811.97;5224165;28;19917;-71
2022/12/15 10:31:33;;;;;;;;;;;;;;;-4.98;100.00;100820.59;5227177;28;19952;-70
2022/12/15 10:34:09;;;;;;;;;;;;;;;-4.91;100.00;100818.75;5235004;28;19924;-72
2022/12/15 10:36:48;;;;;;;;;;;;;;;-4.87;100.00;100820.47;5220160;28;19928;-72
2022/12/15 10:39:20;;;;;;;;;;;;;;;-4.81;100.00;100822.97;5223955;28;19925;-72
2022/12/15 10:42:11;;;;;;;;;;;;;;;-4.76;100.00;100833.31;5228908;28;19921;-72
2022/12/15 10:44:44;;;;;;;;;;;;;;;-4.69;100.00;100826.31;5226427;28;20388;-72
2022/12/15 10:47:26;;;;;;;;;;;;;;;-4.63;100.00;100826.19;5226476;28;19924;-72
2022/12/15 10:50:15;;;;;;;;;;;;;;;-4.59;100.00;100820.91;5229079;28;19917;-72
2022/12/15 10:52:47;;;;;;;;;;;;;;;-4.54;100.00;100820.88;5224717;28;19956;-72
2022/12/15 10:55:29;;;;;;;;;;;;;;;-4.47;100.00;100826.84;5224474;28;19917;-72
2022/12/15 10:58:02;;;;;;;;;;;;;;;-4.42;100.00;100819.81;5231230;28;20374;-72
2022/12/15 11:00:33;;;;;;;;;;;;;;;-4.38;100.00;100824.94;5229127;28;19921;-72
2022/12/15 11:03:18;;;;;;;;;;;;;;;-4.31;100.00;100825.72;5229848;28;19944;-72
2022/12/15 11:05:54;;;;;;;;;;;;;;;-4.25;100.00;100820.41;5229079;28;19980;-72
2022/12/15 11:08:27;;;;;;;;;;;;;;;-4.20;100.00;100825.53;5232048;28;19971;-71
2022/12/15 11:14:10;;;;;;;;;;;;;;;-4.09;100.00;100836.66;5229080;28;19921;-73
2022/12/15 11:16:43;;;;;;;;;;;;;;;-4.02;100.00;100827.00;5230575;28;19920;-73
2022/12/15 11:19:35;;;;;;;;;;;;;;;-3.97;100.00;100823.44;5228600;28;20019;-72
2022/12/15 11:22:11;;;;;;;;;;;;;;;-3.90;100.00;100820.72;5230500;28;19952;-73
2022/12/15 11:24:46;;;;;;;;;;;;;;;-3.85;100.00;100808.47;5231134;28;20439;-73
2022/12/15 11:27:21;;;;;;;;;;;;;;;-3.82;100.00;100811.88;5229463;28;19963;-73
2022/12/15 11:29:59;;;;;;;;;;;;;;;-3.75;100.00;100812.63;5226864;28;20374;-73
2022/12/15 11:32:33;;;;;;;;;;;;;;;-3.70;100.00;100817.75;5228405;28;20454;-73
2022/12/15 11:35:10;;;;;;;;;;;;;;;-3.65;100.00;100819.38;5231001;28;19921;-73
2022/12/15 11:37:50;;;;;;;;;;;;;;;-3.60;100.00;100814.09;5234367;28;19924;-73
2022/12/15 11:40:29;;;;;;;;;;;;;;;-3.57;100.00;100817.53;5229299;28;20264;-74
2022/12/15 11:43:13;;;;;;;;;;;;;;;-3.51;100.00;100813.91;5229671;28;19925;-73
2022/12/15 11:46:19;;;;;;;;;;;;;;;-3.47;100.00;100817.31;5228459;28;20319;-73
2022/12/15 11:48:50;;;;;;;;;;;;;;;-3.43;100.00;100812.03;5227980;28;20595;-73
2022/12/15 11:51:33;;;;;;;;;;;;;;;-3.38;100.00;100809.31;5228884;28;19959;-74
2022/12/15 11:54:05;;;;;;;;;;;;;;;-3.33;100.00;100810.09;5233160;28;20385;-74
2022/12/15 11:56:45;;;;;;;;;;;;;;;-3.28;100.00;100802.16;5231091;28;19974;-74
2022/12/15 11:59:36;;;;;;;;;;;;;;;-3.23;100.00;100800.34;5230405;28;19951;-74
2022/12/15 12:02:19;;;;;;;;;;;;;;;-3.18;100.00;100807.19;5232793;28;20157;-74
2022/12/15 12:05:05;;;;;;;;;;;;;;;-3.13;100.00;100803.63;5229290;28;19939;-74
2022/12/15 12:07:39;;;;;;;;;;;;;;;-3.10;100.00;100798.34;5227368;28;19921;-74
2022/12/15 12:10:13;;;;;;;;;;;;;;;-3.08;100.00;100800.03;5235133;28;20050;-74
2022/12/15 12:12:48;;;;;;;;;;;;;;;-3.06;100.00;100795.63;5232602;28;19921;-74
2022/12/15 12:15:22;;;;;;;;;;;;;;;-3.03;100.00;100794.69;5228295;28;20077;-74
2022/12/15 12:18:03;;;;;;;;;;;;;;;-3.01;100.00;100791.19;5226315;28;19925;-74
2022/12/15 12:20:54;;;;;;;;;;;;;;;-2.98;100.00;100788.47;5229465;28;19928;-74
2022/12/15 12:23:33;;;;;;;;;;;;;;;-2.97;100.00;100785.00;5230673;28;19927;-75
2022/12/15 12:26:14;;;;;;;;;;;;;;;-2.93;100.00;100775.34;5226679;28;19961;-74
2022/12/15 12:28:49;;;;;;;;;;;;;;;-2.90;100.00;100785.72;5229884;28;20354;-74
2022/12/15 12:31:39;;;;;;;;;;;;;;;-2.88;100.00;100770.00;5232694;28;19954;-75
2022/12/15 12:34:16;;;;;;;;;;;;;;;-2.86;100.00;100776.91;5230387;28;20046;-74
2022/12/15 12:36:49;;;;;;;;;;;;;;;-2.84;100.00;100780.38;5231746;28;20394;-74
2022/12/15 12:39:22;;;;;;;;;;;;;;;-2.81;100.00;100780.28;5228277;28;20931;-74
2022/12/15 12:41:59;;;;;;;;;;;;;;;-2.78;100.00;100787.19;5227427;28;19927;-75
2022/12/15 12:44:40;;;;;;;;;;;;;;;-2.74;100.00;100788.84;5226303;28;20302;-75
2022/12/15 12:47:27;;;;;;;;;;;;;;;-2.70;100.00;100787.00;5227031;28;19978;-74
2022/12/15 12:50:06;;;;;;;;;;;;;;;-2.66;100.00;100789.53;5224257;28;19913;-75
2022/12/15 12:52:37;;;;;;;;;;;;;;;-2.63;100.00;100781.66;5228267;28;19947;-75
2022/12/15 12:55:11;;;;;;;;;;;;;;;-2.58;100.00;100774.53;5229158;28;21271;-75
2022/12/15 12:57:43;;;;;;;;;;;;;;;-2.54;100.00;100774.47;5231604;28;20371;-75
2022/12/15 13:00:18;;;;;;;;;;;;;;;-2.53;100.00;100768.34;5228416;28;19931;-74
2022/12/15 13:02:54;;;;;;;;;;;;;;;-2.51;100.00;100764.81;5228903;28;19916;-75
2022/12/15 13:05:44;;;;;;;;;;;;;;;-2.48;100.00;100756.03;5230008;28;19917;-75
2022/12/15 13:08:25;;;;;;;;;;;;;;;-2.46;100.00;100757.72;5230739;28;20665;-75
2022/12/15 13:11:16;;;;;;;;;;;;;;;-2.44;100.00;100755.06;5226548;28;19921;-74
2022/12/15 13:13:48;;;;;;;;;;;;;;;-2.42;100.00;100748.03;5228437;28;19921;-75
2022/12/15 13:16:23;;;;;;;;;;;;;;;-2.40;100.00;100747.13;5229502;28;19920;-74
2022/12/15 13:19:03;;;;;;;;;;;;;;;-2.37;100.00;100741.81;5229754;28;19931;-75
2022/12/15 13:21:44;;;;;;;;;;;;;;;-2.33;100.00;100726.91;5227669;28;20310;-75
2022/12/15 13:24:36;;;;;;;;;;;;;;;-2.29;100.00;100730.31;5229902;28;20326;-75
2022/12/15 13:27:07;;;;;;;;;;;;;;;-2.27;100.00;100733.75;5228713;28;20031;-75
2022/12/15 13:29:58;;;;;;;;;;;;;;;-2.26;100.00;100731.09;5228161;28;19923;-75
2022/12/15 13:32:40;;;;;;;;;;;;;;;-2.25;100.00;100726.72;5221113;28;20438;-74
2022/12/15 13:35:11;;;;;;;;;;;;;;;-2.23;100.00;100724.94;5223723;28;20290;-75
2022/12/15 13:37:57;;;;;;;;;;;;;;;-2.21;100.00;100723.97;5228445;28;19921;-74
2022/12/15 13:40:34;;;;;;;;;;;;;;;-2.18;100.00;100721.31;5224589;28;19964;-74
2022/12/15 13:43:08;;;;;;;;;;;;;;;-2.14;100.00;100724.69;5229175;28;19921;-75
2022/12/15 13:45:45;;;;;;;;;;;;;;;-2.10;100.00;100715.03;5224765;28;19928;-74
2022/12/15 13:48:25;;;;;;;;;;;;;;;-2.04;100.00;100720.09;5223337;28;19921;-74
2022/12/15 13:51:02;;;;;;;;;;;;;;;-1.98;100.00;100720.75;5224156;28;19999;-75
2022/12/15 13:53:39;;;;;;;;;;;;;;;-1.94;100.00;100716.31;5228010;28;20277;-75
2022/12/15 13:56:10;;;;;;;;;;;;;;;-1.91;100.00;100713.63;5227860;28;20370;-75
2022/12/15 13:58:47;;;;;;;;;;;;;;;-1.88;100.00;100717.91;5228205;28;19924;-76
2022/12/15 14:01:26;;;;;;;;;;;;;;;-1.84;100.00;100722.16;5228573;28;20587;-75
2022/12/15 14:04:03;;;;;;;;;;;;;;;-1.82;100.00;100709.94;5224988;28;19916;-75
2022/12/15 14:06:36;;;;;;;;;;;;;;;-1.80;100.00;100708.97;5243568;28;19971;-75
2022/12/15 14:09:12;;;;;;;;;;;;;;;-1.79;100.00;100715.91;5228141;28;19928;-75
2022/12/15 14:11:44;;;;;;;;;;;;;;;-1.74;100.00;100709.72;5225484;28;20007;-75
2022/12/15 14:14:17;;;;;;;;;;;;;;;-1.70;100.00;100711.34;5226054;28;19923;-75
2022/12/15 14:16:53;;;;;;;;;;;;;;;-1.66;100.00;100708.56;5227900;28;19943;-75
2022/12/15 14:19:25;;;;;;;;;;;;;;;-1.62;100.00;100712.81;5226169;28;20279;-75
2022/12/15 14:21:56;;;;;;;;;;;;;;;-1.57;100.00;100707.47;5226057;28;19928;-75
2022/12/15 14:24:32;;;;;;;;;;;;;;;-1.54;100.00;100704.75;5227478;28;19923;-75
2022/12/15 14:27:04;;;;;;;;;;;;;;;-1.49;100.00;100694.16;5228434;28;20342;-75
2022/12/15 14:29:35;;;;;;;;;;;;;;;-1.47;100.00;100700.22;5224679;28;19921;-75
2022/12/15 14:32:07;;;;;;;;;;;;;;;-1.45;100.00;100686.19;5228730;28;20491;-76
2022/12/15 14:34:40;;;;;;;;;;;;;;;-1.44;100.00;100692.25;5223555;28;19920;-75
2022/12/15 14:37:16;;;;;;;;;;;;;;;-1.37;100.00;100693.81;5227912;28;20640;-75
2022/12/15 14:39:48;;;;;;;;;;;;;;;-1.37;100.00;100688.56;5231991;28;20004;-75
2022/12/15 14:42:22;;;;;;;;;;;;;;;-1.36;100.00;100690.28;5223816;28;20397;-75
2022/12/15 14:44:54;;;;;;;;;;;;;;;-1.36;100.00;100689.41;5222334;28;19920;-74
2022/12/15 14:47:27;;;;;;;;;;;;;;;-1.39;100.00;100693.00;5224947;28;19920;-75
2022/12/15 14:50:00;;;;;;;;;;;;;;;-1.43;100.00;100678.28;5227749;28;19963;-75
2022/12/15 14:52:34;;;;;;;;;;;;;;;-1.47;100.00;100685.38;5229062;28;20383;-75
2022/12/15 14:55:24;;;;;;;;;;;;;;;-1.53;100.00;100685.56;5227754;28;19921;-75
2022/12/15 14:57:55;;;;;;;;;;;;;;;-1.58;100.00;100688.28;5224605;28;20722;-75
2022/12/15 15:00:34;;;;;;;;;;;;;;;-1.59;100.00;100677.88;5224682;28;19921;-74
2022/12/15 15:03:14;;;;;;;;;;;;;;;-1.63;100.00;100676.22;5227214;28;19921;-75
2022/12/15 15:05:57;;;;;;;;;;;;;;;-1.67;100.00;100672.88;5223193;28;19917;-75
2022/12/15 15:08:33;;;;;;;;;;;;;;;-1.73;100.00;100666.94;5226461;28;19924;-75
2022/12/15 15:11:16;;;;;;;;;;;;;;;-1.75;100.00;100672.22;5228146;28;20931;-74
2022/12/15 15:13:47;;;;;;;;;;;;;;;-1.79;100.00;100668.81;5227050;28;20470;-74
2022/12/15 15:16:19;;;;;;;;;;;;;;;-1.84;100.00;100673.34;5223572;28;19917;-74
2022/12/15 15:18:51;;;;;;;;;;;;;;;-1.89;100.00;100669.16;5227579;28;19976;-74
2022/12/15 15:21:25;;;;;;;;;;;;;;;-1.91;100.00;100668.34;5223959;28;19957;-74
2022/12/15 15:24:00;;;;;;;;;;;;;;;-1.95;100.00;100670.19;5228361;28;19921;-74
2022/12/15 15:26:31;;;;;;;;;;;;;;;-1.98;100.00;100667.63;5223467;28;19966;-74
2022/12/15 15:29:02;;;;;;;;;;;;;;;-2.02;100.00;100671.22;5221897;28;20330;-74
2022/12/15 15:31:35;;;;;;;;;;;;;;;-2.09;100.00;100665.31;5224312;28;19928;-74
2022/12/15 15:34:06;;;;;;;;;;;;;;;-2.11;100.00;100668.88;5223570;28;19921;-73